createdAt,value
2023-09-06T00:01:19.928Z,9.18
2023-09-06T00:03:46.868Z,10.93
2023-09-06T00:06:13.685Z,11.52
2023-09-06T00:08:40.414Z,10.65
2023-09-06T00:11:07.139Z,10.63
2023-09-06T00:13:35.380Z,10.25
2023-09-06T00:16:03.429Z,10.95
2023-09-06T00:18:30.951Z,9.75
2023-09-06T00:20:58.978Z,10.10
2023-09-06T00:23:27.143Z,9.02
2023-09-06T00:25:57.390Z,10.07
2023-09-06T00:28:26.802Z,9.35
2023-09-06T00:30:58.739Z,8.18
2023-09-06T00:33:31.803Z,9.02
2023-09-06T00:35:59.289Z,9.93
2023-09-06T00:38:27.383Z,10.00
2023-09-06T00:40:54.482Z,9.85
2023-09-06T00:43:21.239Z,9.63
2023-09-06T00:45:52.164Z,10.27
2023-09-06T00:48:22.786Z,10.02
2023-09-06T00:50:52.018Z,12.50
2023-09-06T00:53:21.450Z,12.80
2023-09-06T00:55:50.086Z,12.90
2023-09-06T00:58:19.426Z,12.77
2023-09-06T01:00:48.439Z,11.52
2023-09-06T01:03:16.153Z,11.77
2023-09-06T01:05:48.537Z,11.35
2023-09-06T01:08:19.914Z,10.38
2023-09-06T01:10:46.990Z,10.48
2023-09-06T01:13:13.825Z,11.48
2023-09-06T01:15:44.816Z,11.32
2023-09-06T01:18:14.124Z,11.10
2023-09-06T01:20:54.140Z,10.23
2023-09-06T01:23:34.822Z,10.35
2023-09-06T01:26:02.563Z,9.18
2023-09-06T01:28:29.874Z,9.57
2023-09-06T01:30:58.009Z,9.63
2023-09-06T01:33:24.753Z,8.75
2023-09-06T01:35:51.940Z,10.10
2023-09-06T01:38:18.819Z,9.95
2023-09-06T01:40:45.859Z,11.18
2023-09-06T01:43:13.533Z,10.23
2023-09-06T01:45:47.123Z,10.98
2023-09-06T01:48:13.921Z,10.95
2023-09-06T01:50:42.607Z,11.50
2023-09-06T01:53:09.324Z,10.77
2023-09-06T01:55:36.124Z,10.65
2023-09-06T01:58:05.175Z,9.75
2023-09-06T02:00:33.228Z,10.43
2023-09-06T02:03:01.131Z,10.65
2023-09-06T02:05:27.981Z,11.23
2023-09-06T02:07:54.674Z,10.55
2023-09-06T02:10:22.568Z,10.90
2023-09-06T02:12:49.258Z,10.63
2023-09-06T02:15:16.301Z,10.43
2023-09-06T02:17:44.693Z,10.10
2023-09-06T02:20:18.960Z,10.52
2023-09-06T02:22:48.591Z,9.75
2023-09-06T02:25:17.072Z,9.95
2023-09-06T02:27:43.874Z,10.43
2023-09-06T02:30:10.900Z,10.10
2023-09-06T02:32:37.732Z,8.77
2023-09-06T02:35:04.738Z,9.70
2023-09-06T02:37:31.472Z,9.23
2023-09-06T02:39:58.129Z,10.35
2023-09-06T02:42:25.833Z,9.45
2023-09-06T02:44:53.188Z,10.20
2023-09-06T02:47:26.593Z,9.48
2023-09-06T02:49:57.044Z,9.55
2023-09-06T02:52:31.629Z,9.40
2023-09-06T02:54:59.421Z,9.70
2023-09-06T02:57:27.290Z,9.57
2023-09-06T02:59:55.056Z,9.10
2023-09-06T03:02:22.954Z,9.88
2023-09-06T03:04:58.806Z,11.02
2023-09-06T03:07:25.988Z,9.88
2023-09-06T03:09:52.780Z,9.77
2023-09-06T03:12:20.551Z,9.20
2023-09-06T03:14:50.931Z,9.77
2023-09-06T03:17:23.814Z,8.63
2023-09-06T03:19:54.906Z,8.95
2023-09-06T03:22:27.230Z,9.10
2023-09-06T03:24:56.482Z,8.70
2023-09-06T03:27:23.284Z,9.07
2023-09-06T03:29:52.253Z,8.57
2023-09-06T03:32:22.635Z,8.82
2023-09-06T03:34:50.767Z,9.25
2023-09-06T03:37:19.946Z,9.57
2023-09-06T03:39:48.872Z,9.07
2023-09-06T03:42:16.450Z,8.85
2023-09-06T03:44:47.742Z,9.65
2023-09-06T03:47:14.982Z,9.00
2023-09-06T03:49:42.522Z,8.52
2023-09-06T03:52:09.232Z,9.23
2023-09-06T03:54:36.042Z,8.85
2023-09-06T03:57:04.029Z,9.27
2023-09-06T03:59:36.404Z,9.23
2023-09-06T04:02:08.723Z,8.75
2023-09-06T04:04:35.922Z,9.65
2023-09-06T04:07:03.990Z,8.90
2023-09-06T04:09:38.398Z,9.10
2023-09-06T04:12:08.661Z,9.80
2023-09-06T04:14:36.948Z,8.90
2023-09-06T04:17:08.457Z,8.10
2023-09-06T04:19:36.938Z,9.40
2023-09-06T04:22:03.973Z,9.80
2023-09-06T04:24:36.302Z,8.45
2023-09-06T04:27:05.885Z,8.85
2023-09-06T04:29:33.563Z,8.57
2023-09-06T04:32:02.599Z,8.52
2023-09-06T04:34:29.292Z,8.70
2023-09-06T04:36:56.038Z,8.50
2023-09-06T04:39:24.251Z,8.27
2023-09-06T04:41:50.786Z,7.88
2023-09-06T04:44:19.054Z,8.25
2023-09-06T04:46:47.570Z,7.43
2023-09-06T04:49:14.274Z,8.55
2023-09-06T04:54:10.741Z,7.55
2023-09-06T04:56:37.559Z,8.10
2023-09-06T04:59:04.507Z,7.85
2023-09-06T05:01:31.288Z,8.48
2023-09-06T05:03:58.178Z,8.57
2023-09-06T05:06:25.082Z,8.40
2023-09-06T05:08:52.277Z,9.52
2023-09-06T05:11:22.835Z,9.27
2023-09-06T05:13:51.135Z,7.90
2023-09-06T05:16:19.281Z,7.75
2023-09-06T05:18:49.597Z,8.65
2023-09-06T05:21:18.544Z,7.82
2023-09-06T05:26:12.353Z,6.90
2023-09-06T05:28:43.860Z,7.30
2023-09-06T05:31:11.045Z,6.07
2023-09-06T05:33:40.065Z,6.30
2023-09-06T05:36:09.911Z,5.70
2023-09-06T05:38:36.646Z,6.25
2023-09-06T05:41:04.980Z,5.80
2023-09-06T05:43:37.726Z,5.32
2023-09-06T05:46:11.897Z,5.95
2023-09-06T05:48:49.402Z,5.30
2023-09-06T05:51:16.162Z,5.75
2023-09-06T05:53:43.451Z,5.45
2023-09-06T05:56:10.162Z,5.45
2023-09-06T05:58:39.173Z,5.03
2023-09-06T06:01:12.779Z,5.20
2023-09-06T06:03:39.513Z,5.63
2023-09-06T06:06:11.642Z,5.63
2023-09-06T06:08:38.723Z,5.57
2023-09-06T06:11:05.515Z,5.68
2023-09-06T06:13:32.108Z,5.43
2023-09-06T06:15:58.691Z,6.30
2023-09-06T06:18:27.426Z,6.13
2023-09-06T06:20:55.853Z,6.15
2023-09-06T06:23:22.429Z,6.00
2023-09-06T06:25:49.325Z,5.15
2023-09-06T06:28:16.794Z,5.97
2023-09-06T06:30:43.957Z,5.82
2023-09-06T06:33:10.688Z,6.57
2023-09-06T06:35:37.698Z,7.05
2023-09-06T06:38:04.511Z,6.75
2023-09-06T06:40:31.479Z,6.80
2023-09-06T06:42:58.062Z,7.40
2023-09-06T06:45:24.645Z,6.57
2023-09-06T06:47:51.190Z,6.85
2023-09-06T06:50:17.828Z,6.80
2023-09-06T06:52:47.359Z,6.85
2023-09-06T06:55:13.977Z,7.93
2023-09-06T06:57:40.589Z,7.68
2023-09-06T07:00:12.331Z,7.15
2023-09-06T07:02:39.714Z,7.18
2023-09-06T07:05:06.706Z,8.38
2023-09-06T07:07:33.300Z,7.22
2023-09-06T07:12:26.490Z,7.40
2023-09-06T07:17:19.834Z,6.90
2023-09-06T07:19:46.542Z,6.20
2023-09-06T07:22:13.124Z,6.63
2023-09-06T07:27:06.228Z,6.20
2023-09-06T07:31:59.631Z,6.97
2023-09-06T07:34:26.784Z,6.60
2023-09-06T07:36:53.380Z,7.18
2023-09-06T07:41:48.537Z,6.63
2023-09-06T07:44:15.189Z,6.53
2023-09-06T07:49:09.158Z,6.40
2023-09-06T07:51:35.846Z,5.68
2023-09-06T07:56:29.517Z,8.57
2023-09-06T07:58:56.558Z,8.23
2023-09-06T08:01:23.116Z,6.88
2023-09-06T08:03:49.703Z,5.05
2023-09-06T08:06:16.626Z,4.65
2023-09-06T08:08:44.693Z,5.47
2023-09-06T08:11:11.512Z,4.82
2023-09-06T08:13:38.685Z,5.18
2023-09-06T08:16:06.643Z,4.50
2023-09-06T08:18:33.886Z,4.78
2023-09-06T08:21:02.253Z,4.78
2023-09-06T08:23:29.176Z,4.05
2023-09-06T08:25:57.288Z,4.00
2023-09-06T08:28:23.839Z,4.57
2023-09-06T08:33:18.160Z,4.28
2023-09-06T08:35:44.994Z,4.40
2023-09-06T08:38:26.635Z,4.32
2023-09-06T08:40:53.226Z,4.10
2023-09-06T08:43:20.445Z,4.53
2023-09-06T08:45:49.530Z,4.07
2023-09-06T08:48:16.920Z,3.75
2023-09-06T08:50:46.729Z,4.22
2023-09-06T08:53:16.116Z,4.03
2023-09-06T08:55:46.207Z,4.07
2023-09-06T08:58:13.689Z,3.50
2023-09-06T09:00:40.807Z,2.95
2023-09-06T09:03:07.720Z,3.42
2023-09-06T09:05:34.650Z,3.78
2023-09-06T09:08:02.360Z,3.63
2023-09-06T09:10:33.304Z,3.60
2023-09-06T09:13:01.338Z,3.40
2023-09-06T09:15:31.246Z,3.95
2023-09-06T09:18:01.629Z,3.17
2023-09-06T09:20:31.831Z,2.97
2023-09-06T09:23:04.454Z,3.53
2023-09-06T09:25:33.627Z,3.53
2023-09-06T09:28:00.826Z,3.25
2023-09-06T09:30:32.569Z,3.30
2023-09-06T09:33:02.671Z,3.58
2023-09-06T09:35:32.483Z,3.55
2023-09-06T09:38:00.982Z,3.50
2023-09-06T09:40:46.064Z,3.15
2023-09-06T09:43:18.702Z,2.97
2023-09-06T09:45:47.157Z,3.42
2023-09-06T09:48:16.684Z,3.03
2023-09-06T09:50:45.258Z,3.03
2023-09-06T09:55:48.573Z,2.90
2023-09-06T09:58:17.075Z,2.58
2023-09-06T10:00:44.167Z,3.08
2023-09-06T10:03:11.459Z,2.90
2023-09-06T10:05:39.341Z,3.22
2023-09-06T10:08:10.379Z,2.88
2023-09-06T10:10:41.541Z,2.88
2023-09-06T10:13:11.574Z,2.40
2023-09-06T10:15:39.155Z,2.50
2023-09-06T10:18:07.706Z,2.78
2023-09-06T10:20:36.665Z,2.58
2023-09-06T10:23:07.045Z,2.53
2023-09-06T10:25:41.026Z,2.45
2023-09-06T10:28:08.866Z,2.63
2023-09-06T10:30:48.155Z,2.67
2023-09-06T10:33:30.106Z,2.50
2023-09-06T10:36:04.686Z,2.13
2023-09-06T10:38:36.685Z,2.67
2023-09-06T10:41:03.187Z,2.42
2023-09-06T10:43:43.041Z,2.35
2023-09-06T10:46:09.649Z,2.55
2023-09-06T10:48:36.605Z,2.30
2023-09-06T10:51:14.223Z,2.42
2023-09-06T10:53:48.525Z,2.92
2023-09-06T10:56:27.463Z,2.10
2023-09-06T10:58:57.558Z,2.45
2023-09-06T11:01:24.113Z,2.50
2023-09-06T11:03:53.633Z,2.92
2023-09-06T11:06:20.312Z,2.92
2023-09-06T11:08:48.342Z,2.28
2023-09-06T11:11:15.508Z,2.45
2023-09-06T11:13:45.945Z,2.42
2023-09-06T11:16:17.247Z,2.30
2023-09-06T11:18:48.471Z,2.15
2023-09-06T11:21:24.047Z,2.33
2023-09-06T11:23:52.677Z,2.35
2023-09-06T11:26:20.382Z,2.75
2023-09-06T11:28:50.262Z,2.47
2023-09-06T11:31:26.437Z,1.95
2023-09-06T11:33:57.122Z,2.00
2023-09-06T11:36:29.580Z,1.95
2023-09-06T11:38:58.671Z,1.75
2023-09-06T11:41:25.777Z,1.95
2023-09-06T11:43:57.403Z,1.83
2023-09-06T11:46:25.833Z,1.83
2023-09-06T11:48:54.447Z,2.13
2023-09-06T11:51:23.351Z,1.52
2023-09-06T11:53:55.375Z,2.10
2023-09-06T11:56:31.741Z,2.22
2023-09-06T11:59:01.007Z,1.48
2023-09-06T12:01:28.204Z,2.03
2023-09-06T12:03:57.992Z,1.75
2023-09-06T12:06:27.175Z,2.05
2023-09-06T12:08:53.971Z,1.80
2023-09-06T12:11:22.973Z,1.45
2023-09-06T12:13:49.812Z,1.58
2023-09-06T12:16:17.291Z,1.73
2023-09-06T12:18:45.759Z,1.88
2023-09-06T12:21:12.760Z,1.60
2023-09-06T12:23:39.420Z,1.65
2023-09-06T12:26:06.766Z,1.50
2023-09-06T12:28:33.938Z,1.52
2023-09-06T12:31:09.874Z,1.50
2023-09-06T12:33:39.311Z,2.00
2023-09-06T12:36:07.093Z,3.00
2023-09-06T12:38:33.816Z,1.70
2023-09-06T12:41:01.932Z,1.95
2023-09-06T12:43:30.416Z,1.75
2023-09-06T12:45:58.518Z,1.88
2023-09-06T12:48:26.098Z,1.70
2023-09-06T12:50:54.843Z,2.10
2023-09-06T12:53:23.998Z,2.03
2023-09-06T12:55:50.511Z,1.67
2023-09-06T12:58:17.102Z,1.60
2023-09-06T13:00:43.578Z,1.75
2023-09-06T13:03:10.410Z,2.03
2023-09-06T13:05:40.990Z,1.73
2023-09-06T13:08:08.006Z,2.13
2023-09-06T13:10:34.525Z,1.88
2023-09-06T13:13:01.150Z,2.25
2023-09-06T13:15:27.661Z,2.00
2023-09-06T13:17:54.260Z,2.45
2023-09-06T13:20:20.818Z,2.08
2023-09-06T13:22:47.318Z,1.80
2023-09-06T13:25:14.177Z,1.83
2023-09-06T13:27:40.926Z,1.90
2023-09-06T13:30:07.996Z,2.05
2023-09-06T13:32:35.083Z,1.90
2023-09-06T13:35:02.348Z,2.20
2023-09-06T13:37:28.936Z,2.00
2023-09-06T13:39:55.459Z,1.98
2023-09-06T13:42:22.098Z,2.55
2023-09-06T13:44:48.612Z,2.38
2023-09-06T13:47:17.380Z,1.48
2023-09-06T13:49:44.331Z,2.28
2023-09-06T13:52:12.816Z,1.70
2023-09-06T13:54:40.650Z,1.90
2023-09-06T13:57:08.349Z,1.95
2023-09-06T13:59:35.033Z,2.08
2023-09-06T14:02:01.642Z,2.00
2023-09-06T14:04:28.353Z,1.60
2023-09-06T14:06:55.625Z,2.03
2023-09-06T14:09:23.835Z,2.20
2023-09-06T14:11:50.884Z,1.90
2023-09-06T14:14:18.294Z,1.65
2023-09-06T14:16:46.051Z,2.60
2023-09-06T14:19:12.854Z,2.45
2023-09-06T14:21:46.353Z,1.83
2023-09-06T14:24:17.093Z,2.03
2023-09-06T14:26:44.533Z,1.58
2023-09-06T14:29:15.344Z,1.83
2023-09-06T14:31:42.297Z,1.80
2023-09-06T14:34:09.123Z,2.03
2023-09-06T14:36:36.127Z,1.98
2023-09-06T14:39:05.064Z,2.03
2023-09-06T14:41:33.931Z,1.70
2023-09-06T14:44:00.612Z,1.90
2023-09-06T14:46:27.251Z,2.00
2023-09-06T14:48:54.111Z,1.88
2023-09-06T14:51:20.693Z,1.50
2023-09-06T14:53:47.355Z,2.00
2023-09-06T14:56:16.190Z,1.90
2023-09-06T14:58:43.225Z,2.25
2023-09-06T15:01:09.931Z,1.63
2023-09-06T15:03:36.685Z,1.77
2023-09-06T15:06:06.535Z,2.33
2023-09-06T15:08:33.445Z,2.28
2023-09-06T15:11:00.264Z,2.03
2023-09-06T15:13:27.297Z,2.30
2023-09-06T15:15:54.048Z,1.88
2023-09-06T15:18:20.703Z,1.80
2023-09-06T15:20:47.781Z,2.15
2023-09-06T15:23:15.223Z,2.13
2023-09-06T15:25:42.107Z,2.00
2023-09-06T15:28:08.878Z,2.25
2023-09-06T15:30:35.852Z,2.22
2023-09-06T15:33:03.365Z,2.63
2023-09-06T15:35:30.192Z,1.80
2023-09-06T15:38:12.913Z,1.60
2023-09-06T15:40:39.879Z,2.03
2023-09-06T15:43:06.795Z,2.17
2023-09-06T15:45:33.906Z,1.85
2023-09-06T15:48:00.918Z,1.90
2023-09-06T15:50:29.412Z,2.25
2023-09-06T15:52:56.483Z,1.92
2023-09-06T15:55:23.869Z,2.20
2023-09-06T15:57:51.232Z,2.17
2023-09-06T16:00:30.739Z,2.72
2023-09-06T16:02:59.156Z,2.58
2023-09-06T16:05:26.499Z,2.17
2023-09-06T16:07:54.545Z,2.05
2023-09-06T16:10:21.360Z,1.65
2023-09-06T16:12:49.837Z,2.13
2023-09-06T16:15:17.709Z,2.63
2023-09-06T16:17:46.043Z,1.90
2023-09-06T16:20:13.135Z,1.67
2023-09-06T16:22:39.706Z,1.77
2023-09-06T16:25:08.695Z,1.75
2023-09-06T16:27:35.575Z,1.90
2023-09-06T16:30:06.715Z,2.10
2023-09-06T16:32:33.818Z,2.00
2023-09-06T16:35:01.144Z,2.00
2023-09-06T16:37:27.669Z,2.00
2023-09-06T16:39:54.343Z,2.00
2023-09-06T16:42:22.287Z,1.85
2023-09-06T16:44:48.870Z,3.22
2023-09-06T16:49:48.174Z,2.87
2023-09-06T16:52:15.398Z,2.58
2023-09-06T16:54:42.013Z,2.35
2023-09-06T16:59:35.104Z,3.22
2023-09-06T17:02:01.662Z,2.83
2023-09-06T17:06:54.828Z,2.38
2023-09-06T17:09:21.321Z,3.05
2023-09-06T17:14:14.292Z,2.42
2023-09-06T17:19:10.450Z,3.27
2023-09-06T17:21:40.064Z,3.55
2023-09-06T17:24:09.362Z,2.47
2023-09-06T17:26:40.907Z,2.95
2023-09-06T17:29:07.601Z,4.53
2023-09-06T17:31:37.694Z,4.93
2023-09-06T17:34:04.464Z,3.00
2023-09-06T17:38:57.575Z,3.90
2023-09-06T17:41:24.609Z,3.10
2023-09-06T17:43:52.199Z,2.90
2023-09-06T17:46:25.284Z,2.63
2023-09-06T17:48:54.218Z,2.05
2023-09-06T17:51:21.464Z,2.75
2023-09-06T17:53:48.712Z,3.67
2023-09-06T17:56:17.510Z,3.10
2023-09-06T17:58:45.819Z,2.83
2023-09-06T18:01:15.151Z,2.45
2023-09-06T18:03:44.768Z,4.05
2023-09-06T18:06:14.780Z,3.10
2023-09-06T18:08:43.302Z,2.50
2023-09-06T18:11:10.602Z,2.70
2023-09-06T18:13:41.489Z,2.50
2023-09-06T18:16:12.129Z,4.18
2023-09-06T18:18:39.330Z,3.00
2023-09-06T18:21:10.235Z,2.85
2023-09-06T18:23:40.862Z,2.80
2023-09-06T18:26:11.668Z,2.63
2023-09-06T18:28:38.399Z,4.03
2023-09-06T18:31:05.568Z,5.30
2023-09-06T18:33:32.359Z,4.50
2023-09-06T18:35:58.964Z,4.25
2023-09-06T18:40:57.376Z,4.30
2023-09-06T18:43:24.337Z,4.32
2023-09-06T18:45:51.773Z,3.67
2023-09-06T18:48:21.246Z,3.83
2023-09-06T18:50:48.974Z,3.97
2023-09-06T18:53:15.529Z,4.63
2023-09-06T18:55:45.575Z,4.10
2023-09-06T18:58:12.716Z,3.80
2023-09-06T19:00:42.775Z,3.88
2023-09-06T19:03:13.866Z,3.70
2023-09-06T19:05:42.310Z,4.43
2023-09-06T19:08:15.367Z,3.78
2023-09-06T19:10:43.258Z,4.18
2023-09-06T19:13:11.470Z,3.75
2023-09-06T19:15:38.432Z,3.88
2023-09-06T19:18:07.175Z,3.70
2023-09-06T19:20:34.196Z,4.75
2023-09-06T19:23:00.797Z,4.00
2023-09-06T19:25:28.535Z,4.95
2023-09-06T19:27:55.538Z,4.35
2023-09-06T19:30:22.388Z,3.97
2023-09-06T19:32:49.166Z,4.05
2023-09-06T19:35:15.914Z,3.50
2023-09-06T19:37:42.462Z,3.80
2023-09-06T19:42:36.410Z,4.72
2023-09-06T19:45:03.271Z,4.22
2023-09-06T19:47:29.931Z,3.50
2023-09-06T19:49:57.126Z,3.60
2023-09-06T19:52:23.957Z,3.97
2023-09-06T19:54:50.611Z,3.97
2023-09-06T19:57:18.176Z,3.72
2023-09-06T19:59:44.756Z,3.60
2023-09-06T20:04:38.488Z,4.05
2023-09-06T20:07:05.550Z,3.70
2023-09-06T20:09:32.342Z,3.22
2023-09-06T20:11:59.138Z,3.78
2023-09-06T20:14:28.873Z,3.88
2023-09-06T20:16:58.736Z,4.65
2023-09-06T20:19:25.528Z,4.75
2023-09-06T20:21:52.042Z,5.03
2023-09-06T20:26:45.255Z,5.03
2023-09-06T20:29:11.943Z,4.60
2023-09-06T20:31:38.778Z,3.97
2023-09-06T20:34:05.526Z,4.40
2023-09-06T20:36:33.749Z,4.97
2023-09-06T20:39:00.561Z,5.18
2023-09-06T20:41:27.225Z,6.03
2023-09-06T20:43:53.842Z,6.03
2023-09-06T20:48:47.399Z,6.32
2023-09-06T20:51:17.060Z,5.85
2023-09-06T20:53:44.542Z,5.53
2023-09-06T20:56:11.869Z,5.65
2023-09-06T20:58:38.957Z,6.07
2023-09-06T21:01:16.496Z,6.75
2023-09-06T21:03:43.316Z,6.57
2023-09-06T21:06:12.059Z,7.65
2023-09-06T21:08:39.208Z,7.78
2023-09-06T21:11:06.205Z,8.63
2023-09-06T21:13:34.118Z,8.60
2023-09-06T21:16:05.890Z,8.82
2023-09-06T21:18:33.184Z,9.57
2023-09-06T21:21:00.233Z,9.25
2023-09-06T21:23:26.952Z,9.15
2023-09-06T21:25:53.489Z,9.45
2023-09-06T21:30:48.121Z,6.63
2023-09-06T21:33:14.941Z,7.18
2023-09-06T21:35:43.555Z,7.90
2023-09-06T21:38:11.393Z,7.32
2023-09-06T21:40:42.790Z,7.22
2023-09-06T21:43:17.746Z,6.63
2023-09-06T21:45:46.283Z,7.90
2023-09-06T21:48:13.726Z,7.45
2023-09-06T21:50:42.232Z,7.18
2023-09-06T21:53:09.563Z,8.02
2023-09-06T21:55:36.379Z,7.22
2023-09-06T21:58:10.640Z,7.80
2023-09-06T22:18:05.400Z,6.93
2023-09-06T22:20:34.485Z,5.45
2023-09-06T22:23:01.590Z,6.55
2023-09-06T22:25:28.677Z,7.28
2023-09-06T22:27:58.298Z,7.35
2023-09-06T22:30:25.149Z,7.25
2023-09-06T22:35:18.282Z,8.77
2023-09-06T22:40:11.944Z,8.30
2023-09-06T22:42:38.561Z,8.68
2023-09-06T22:45:05.703Z,8.57
2023-09-06T22:47:32.394Z,7.25
2023-09-06T22:49:59.070Z,7.95
2023-09-06T22:54:52.461Z,7.90
2023-09-06T22:57:19.158Z,7.53
2023-09-06T22:59:45.745Z,7.15
2023-09-06T23:04:40.510Z,7.90
2023-09-06T23:07:07.879Z,7.57
2023-09-06T23:09:34.577Z,7.63
2023-09-06T23:12:02.451Z,7.00
2023-09-06T23:14:29.153Z,7.35
2023-09-06T23:16:55.884Z,7.47
2023-09-06T23:19:28.401Z,7.45
2023-09-06T23:21:59.428Z,7.70
2023-09-06T23:24:28.778Z,7.97
2023-09-06T23:27:00.313Z,8.30
2023-09-06T23:29:35.854Z,7.85
2023-09-06T23:32:05.977Z,7.93
2023-09-06T23:34:35.344Z,8.40
2023-09-06T23:37:05.391Z,8.48
2023-09-06T23:39:34.477Z,7.57
2023-09-06T23:42:10.761Z,7.13
2023-09-06T23:44:42.011Z,8.65
2023-09-06T23:47:10.944Z,7.00
2023-09-06T23:49:38.259Z,6.47
2023-09-06T23:52:05.499Z,6.85
2023-09-06T23:54:44.792Z,5.68
2023-09-06T23:57:14.237Z,6.65
